Time;durP1;ratioP1;P1;durP2;ratioP2;P2;SDS_P1;SDS_P2;PMS_P1;PMS_P2;Temp;Humidity;BMP_temperature;BMP_pressure;BME280_temperature;BME280_humidity;BME280_pressure;Samples;Min_cycle;Max_cycle;Signal;HPM_P1;HPM_P2
2022/07/05 00:06:04;;;;;;;5.90;5.40;;;;;;;19.54;66.05;99589.52;437655;1277;142109;-59
2022/07/05 00:16:10;;;;;;;6.00;5.50;;;;;;;19.45;65.75;99586.59;444993;1279;142830;-59
2022/07/05 00:26:16;;;;;;;8.20;5.40;;;;;;;19.50;65.45;99603.34;444872;1277;141967;-59
2022/07/05 00:36:21;;;;;;;5.30;4.80;;;;;;;19.65;65.13;99612.17;445764;1277;144909;-59
2022/07/05 00:46:27;;;;;;;6.40;5.70;;;;;;;19.71;65.55;99641.02;445657;1277;142585;-60
2022/07/05 00:56:34;;;;;;;10.10;6.90;;;;;;;19.65;65.93;99674.98;445002;1277;143739;-60
2022/07/05 01:06:40;;;;;;;7.40;6.30;;;;;;;19.30;67.32;99640.35;445669;1277;141996;-59
2022/07/05 01:16:46;;;;;;;6.20;5.60;;;;;;;18.50;69.72;99600.38;445674;1277;142296;-59
2022/07/05 01:26:53;;;;;;;6.40;5.90;;;;;;;18.19;71.07;99575.89;445060;1277;144161;-59
2022/07/05 01:36:59;;;;;;;6.20;5.60;;;;;;;18.16;71.63;99564.69;445692;1277;143084;-59
2022/07/05 01:47:08;;;;;;;6.50;5.80;;;;;;;18.11;72.36;99546.70;444895;1277;142506;-59
2022/07/05 01:57:12;;;;;;;;;;;;;;;17.94;72.73;99572.96;445708;1277;146329;-60
2022/07/05 02:07:18;;;;;;;6.40;5.90;;;;;;;17.80;73.42;99581.35;445857;1277;128519;-59
2022/07/05 02:17:23;;;;;;;7.10;6.40;;;;;;;17.62;74.00;99590.77;444814;1277;142556;-60
2022/07/05 02:27:29;;;;;;;7.70;7.10;;;;;;;17.40;74.72;99596.55;444859;1279;142069;-59
2022/07/05 02:37:35;;;;;;;10.30;6.90;;;;;;;17.14;75.35;99602.41;445612;1277;143305;-59
2022/07/05 02:47:41;;;;;;;9.20;8.20;;;;;;;16.97;76.14;99595.98;444829;1277;187695;-59
2022/07/05 02:57:46;;;;;;;9.10;8.10;;;;;;;16.93;76.71;99605.56;445728;1277;143938;-60
2022/07/05 03:07:52;;;;;;;11.20;8.80;;;;;;;16.92;77.27;99604.91;445615;1277;141814;-59
2022/07/05 03:17:58;;;;;;;8.50;7.70;;;;;;;16.93;77.49;99606.05;442184;1277;142452;-59
2022/07/05 03:28:04;;;;;;;8.20;7.60;;;;;;;17.06;77.48;99598.44;445468;1277;142419;-59
2022/07/05 03:38:10;;;;;;;8.30;7.50;;;;;;;17.37;77.24;99597.34;444623;1277;143944;-59
2022/07/05 03:48:15;;;;;;;7.40;5.90;;;;;;;18.18;76.32;99587.36;445436;1277;144444;-59
2022/07/05 03:58:41;;;;;;;5.90;5.40;;;;;;;19.13;74.13;99604.74;445387;1277;143685;-62
2022/07/05 04:08:47;;;;;;;6.40;5.80;;;;;;;21.05;71.29;99610.34;444425;1277;142910;-60
2022/07/05 04:18:53;;;;;;;7.30;6.60;;;;;;;21.88;67.48;99612.84;445168;1277;142650;-59
2022/07/05 04:28:59;;;;;;;4.30;3.90;;;;;;;25.68;63.01;99613.05;445329;1277;142868;-59
2022/07/05 04:39:05;;;;;;;4.20;3.40;;;;;;;27.58;55.77;99631.86;445301;1277;143042;-60
2022/07/05 04:49:11;;;;;;;4.50;3.80;;;;;;;29.95;50.30;99633.29;445403;1277;141975;-59
2022/07/05 04:59:17;;;;;;;3.60;2.80;;;;;;;32.65;46.46;99637.96;444778;1277;143049;-59
2022/07/05 05:09:27;;;;;;;2.80;1.70;;;;;;;34.09;40.83;99639.08;445576;1277;141379;-60
2022/07/05 05:19:33;;;;;;;2.90;2.10;;;;;;;33.66;38.75;99661.89;445532;1277;141564;-60
2022/07/05 05:29:37;;;;;;;;;;;;;;;32.52;37.76;99661.71;444715;1277;142197;-60
2022/07/05 05:39:43;;;;;;;3.60;1.80;;;;;;;31.25;37.72;99653.75;445667;1277;129556;-60
2022/07/05 05:49:49;;;;;;;2.30;1.80;;;;;;;29.06;39.14;99638.35;445448;1277;141256;-60
2022/07/05 05:59:55;;;;;;;2.20;1.90;;;;;;;25.23;43.23;99656.13;444823;1277;142134;-60
2022/07/05 06:10:01;;;;;;;2.80;2.60;;;;;;;23.26;46.96;99661.87;445597;1277;141622;-60
2022/07/05 06:20:10;;;;;;;3.00;2.30;;;;;;;23.08;48.89;99672.17;444798;1277;154471;-59
2022/07/05 06:30:17;;;;;;;3.80;2.60;;;;;;;23.60;48.94;99676.42;445583;1277;185631;-59
2022/07/05 06:40:24;;;;;;;4.60;3.20;;;;;;;23.22;49.49;99679.90;445551;1277;141993;-60
2022/07/05 06:50:32;;;;;;;5.90;2.40;;;;;;;23.00;50.52;99689.52;444766;1278;142507;-60
2022/07/05 07:00:38;;;;;;;3.50;2.70;;;;;;;26.47;48.02;99686.33;445565;1277;142796;-60
2022/07/05 07:11:04;;;;;;;2.80;2.30;;;;;;;27.97;44.68;99687.98;444859;1277;142356;-58
2022/07/05 07:21:10;;;;;;;3.00;2.50;;;;;;;27.17;43.95;99686.11;445351;1278;142365;-60
2022/07/05 07:31:17;;;;;;;3.40;2.30;;;;;;;25.47;46.09;99678.53;445642;1277;141759;-60
2022/07/05 07:41:23;;;;;;;2.40;2.20;;;;;;;28.10;44.12;99674.04;444921;1277;142609;-60
2022/07/05 07:51:30;;;;;;;3.80;2.00;;;;;;;29.06;42.58;99667.08;445067;1278;141976;-61
2022/07/05 08:01:36;;;;;;;4.60;1.90;;;;;;;29.37;41.03;99672.25;444936;1279;142063;-61
2022/07/05 08:11:49;;;;;;;2.20;1.80;;;;;;;28.52;41.09;99684.94;444841;1277;143590;-60
2022/07/05 08:21:54;;;;;;;2.70;2.10;;;;;;;26.79;42.58;99691.30;445562;1277;141847;-61
2022/07/05 08:31:59;;;;;;;3.20;1.60;;;;;;;25.25;44.79;99698.80;445567;1277;141959;-61
2022/07/05 08:42:09;;;;;;;3.90;1.90;;;;;;;24.06;46.89;99696.90;445514;1278;142573;-61
2022/07/05 08:52:16;;;;;;;12.90;2.80;;;;;;;23.40;48.22;99689.84;445551;1278;141098;-60
2022/07/05 09:02:22;;;;;;;3.10;1.90;;;;;;;22.56;49.32;99705.67;444786;1277;142741;-60
2022/07/05 09:12:28;;;;;;;4.40;2.00;;;;;;;22.08;50.18;99709.74;445583;1277;142054;-59
2022/07/05 09:22:44;;;;;;;1.60;1.50;;;;;;;21.71;50.80;99716.48;445517;1277;141870;-59
2022/07/05 09:33:00;;;;;;;14.40;3.10;;;;;;;21.49;51.29;99722.71;444794;1278;143034;-60
2022/07/05 09:43:16;;;;;;;2.60;1.50;;;;;;;21.35;52.17;99728.80;445556;1277;142775;-60
2022/07/05 09:53:22;;;;;;;10.70;2.30;;;;;;;21.04;52.81;99725.52;444801;1277;142030;-60
2022/07/05 10:03:28;;;;;;;9.60;3.20;;;;;;;20.79;53.20;99727.80;445280;1278;344321;-60
2022/07/05 10:13:34;;;;;;;4.80;2.50;;;;;;;20.71;53.49;99745.45;445669;1277;140907;-61
2022/07/05 10:23:43;;;;;;;5.60;3.40;;;;;;;20.74;53.94;99760.11;444980;1277;141837;-59
2022/07/05 10:33:49;;;;;;;2.50;2.30;;;;;;;20.71;55.05;99776.77;445694;1277;141284;-60
2022/07/05 10:43:56;;;;;;;6.10;2.90;;;;;;;20.60;56.56;99783.29;445424;1277;141977;-60
2022/07/05 10:54:05;;;;;;;7.00;2.80;;;;;;;20.46;57.89;99785.19;444899;1277;204234;-60
2022/07/05 11:04:22;;;;;;;5.50;3.80;;;;;;;20.48;59.49;99777.09;445755;1278;142060;-61
2022/07/05 11:14:37;;;;;;;6.90;3.40;;;;;;;20.30;60.66;99756.77;444835;1277;145264;-60
2022/07/05 11:24:43;;;;;;;4.70;3.40;;;;;;;19.97;61.90;99751.10;445581;1278;142397;-59
2022/07/05 11:34:50;;;;;;;5.50;3.80;;;;;;;19.76;62.97;99754.52;445480;1278;144166;-61
2022/07/05 11:44:57;;;;;;;5.70;5.10;;;;;;;19.70;63.86;99744.43;444729;1278;142430;-59
2022/07/05 11:55:12;;;;;;;6.30;5.20;;;;;;;19.80;64.15;99735.19;445483;1278;143996;-60
2022/07/05 12:05:19;;;;;;;6.10;4.50;;;;;;;19.63;64.53;99733.15;444757;1278;142864;-59
2022/07/05 12:15:26;;;;;;;6.20;5.50;;;;;;;19.46;64.52;99736.60;445513;1278;142254;-60
2022/07/05 12:25:34;;;;;;;8.00;7.30;;;;;;;19.14;65.28;99742.53;445558;1277;142803;-60
2022/07/05 12:35:42;;;;;;;6.00;5.50;;;;;;;19.03;66.49;99753.14;444687;1277;196754;-60
2022/07/05 12:46:02;;;;;;;5.10;4.60;;;;;;;18.79;67.03;99752.95;445486;1277;143096;-61
2022/07/05 13:06:48;;;;;;;4.30;3.90;;;;;;;18.54;67.31;99763.13;445528;1277;142409;-60
2022/07/05 13:16:53;;;;;;;5.00;3.50;;;;;;;18.45;67.36;99780.20;445686;1277;142916;-60
2022/07/05 13:27:00;;;;;;;4.10;3.70;;;;;;;18.54;67.33;99778.30;444754;1277;142168;-60
2022/07/05 13:37:06;;;;;;;3.80;3.40;;;;;;;18.54;67.71;99764.71;445614;1277;142015;-61
2022/07/05 13:47:12;;;;;;;4.40;4.00;;;;;;;18.46;67.77;99755.84;444870;1277;141693;-60
2022/07/05 13:57:17;;;;;;;4.60;3.20;;;;;;;18.49;68.21;99749.33;445548;1277;197237;-60
2022/07/05 14:07:24;;;;;;;4.60;3.40;;;;;;;18.46;68.42;99737.25;445516;1277;142537;-60
2022/07/05 14:17:30;;;;;;;3.60;3.30;;;;;;;18.54;68.75;99727.48;444737;1277;142870;-60
2022/07/05 14:27:37;;;;;;;4.20;3.80;;;;;;;18.62;68.82;99718.73;445586;1277;143637;-61
2022/07/05 14:37:42;;;;;;;4.00;3.60;;;;;;;18.75;68.91;99709.25;445383;1277;143209;-59
2022/07/05 14:47:49;;;;;;;3.60;2.80;;;;;;;18.77;69.07;99711.41;444666;1277;142787;-60
2022/07/05 14:57:54;;;;;;;3.00;2.60;;;;;;;18.56;68.02;99710.59;432671;1277;142111;-59
2022/07/05 15:08:00;;;;;;;2.30;2.10;;;;;;;18.35;67.55;99700.19;442945;1278;141394;-60
2022/07/05 15:18:06;;;;;;;3.60;2.10;;;;;;;18.13;67.25;99707.74;429260;1280;143007;-60
2022/07/05 15:28:15;;;;;;;2.70;2.20;;;;;;;17.93;67.73;99705.16;444499;1279;141970;-60
2022/07/05 15:38:20;;;;;;;2.70;2.20;;;;;;;17.79;68.28;99705.20;443162;1279;144328;-59
2022/07/05 15:48:26;;;;;;;2.80;2.60;;;;;;;17.65;69.02;99702.05;432188;1281;142960;-60
2022/07/05 15:58:33;;;;;;;4.20;3.80;;;;;;;17.67;69.44;99707.14;444171;1279;142938;-60
2022/07/05 16:08:38;;;;;;;2.70;2.40;;;;;;;17.72;69.32;99708.17;444250;1277;145910;-60
2022/07/05 16:18:46;;;;;;;3.60;2.30;;;;;;;17.64;68.81;99712.70;440211;1277;142539;-59
2022/07/05 16:28:52;;;;;;;3.80;1.80;;;;;;;17.57;69.01;99710.56;436128;1277;144288;-58
2022/07/05 16:38:58;;;;;;;3.10;2.10;;;;;;;17.56;68.81;99705.48;428281;1277;143855;-60
2022/07/05 16:49:11;;;;;;;2.40;2.00;;;;;;;17.67;68.59;99705.73;445505;1277;141947;-59
2022/07/05 16:59:17;;;;;;;1.90;1.80;;;;;;;17.65;68.49;99695.70;444698;1276;142233;-60
2022/07/05 17:09:23;;;;;;;2.20;1.90;;;;;;;17.53;68.62;99691.15;444368;1279;143468;-59
2022/07/05 17:19:29;;;;;;;2.40;2.20;;;;;;;17.40;68.99;99683.23;444270;1280;142741;-59
2022/07/05 17:29:35;;;;;;;2.90;1.90;;;;;;;17.33;69.24;99679.61;444413;1278;142748;-60
2022/07/05 17:39:41;;;;;;;3.80;2.50;;;;;;;17.21;69.33;99677.86;445054;1277;142492;-59
2022/07/05 17:49:46;;;;;;;3.70;2.00;;;;;;;17.08;69.60;99673.33;443950;1279;141962;-59
2022/07/05 17:59:52;;;;;;;2.80;2.10;;;;;;;17.06;69.89;99668.91;444147;1278;143605;-59
2022/07/05 18:09:58;;;;;;;2.50;1.90;;;;;;;17.07;69.79;99666.06;439415;1277;142992;-59
2022/07/05 18:20:04;;;;;;;2.60;2.40;;;;;;;17.01;69.94;99654.55;435896;1277;145850;-58
2022/07/05 18:30:11;;;;;;;4.20;2.40;;;;;;;16.75;70.10;99647.09;434986;1278;211292;-59
2022/07/05 18:40:17;;;;;;;3.00;2.40;;;;;;;16.54;70.43;99652.30;435329;1277;144396;-58
2022/07/05 18:50:23;;;;;;;5.70;3.50;;;;;;;16.50;70.74;99660.77;429830;1277;145090;-59
2022/07/05 19:00:29;;;;;;;3.60;3.30;;;;;;;16.55;70.87;99664.41;428620;1277;141731;-58
2022/07/05 19:21:00;;;;;;;4.40;3.50;;;;;;;16.47;71.19;99675.13;428135;1277;142199;-58
2022/07/05 19:31:15;;;;;;;3.40;3.00;;;;;;;16.39;71.48;99678.34;429087;1277;142329;-57
2022/07/05 19:41:28;;;;;;;4.40;3.10;;;;;;;16.37;71.70;99690.45;435501;1278;142686;-58
2022/07/05 19:51:34;;;;;;;3.90;3.40;;;;;;;16.37;72.09;99687.33;440881;1278;142541;-58
2022/07/05 20:01:40;;;;;;;4.30;3.40;;;;;;;16.41;72.37;99685.23;445094;1277;142549;-58
2022/07/05 20:11:46;;;;;;;10.90;4.50;;;;;;;16.45;72.64;99683.15;444023;1277;142959;-58
2022/07/05 20:22:08;;;;;;;4.90;4.20;;;;;;;16.41;72.77;99670.42;430464;1278;145394;-59
2022/07/05 20:32:14;;;;;;;4.00;3.30;;;;;;;16.38;72.87;99673.11;427724;1277;143069;-58
2022/07/05 20:42:20;;;;;;;5.10;3.70;;;;;;;16.34;73.44;99669.59;440034;1277;141604;-60
2022/07/05 20:52:26;;;;;;;5.10;3.70;;;;;;;16.29;73.60;99667.00;435038;1277;141236;-63
2022/07/05 21:02:32;;;;;;;4.10;3.50;;;;;;;16.25;74.45;99675.46;444099;1277;141854;-59
2022/07/05 21:12:38;;;;;;;4.50;4.10;;;;;;;16.24;74.97;99673.45;437075;1277;142117;-58
2022/07/05 21:22:44;;;;;;;5.90;5.40;;;;;;;16.22;75.28;99672.39;427401;1278;143222;-57
2022/07/05 21:32:50;;;;;;;8.30;4.60;;;;;;;16.16;75.53;99674.81;444330;1277;143189;-58
2022/07/05 21:42:56;;;;;;;7.20;5.30;;;;;;;16.10;75.95;99679.05;445346;1277;145050;-58
2022/07/05 21:53:01;;;;;;;9.40;6.10;;;;;;;16.09;76.23;99681.05;445425;1277;143086;-58
2022/07/05 22:13:32;;;;;;;10.10;9.30;;;;;;;16.05;76.36;99680.88;445614;1277;142531;-59
2022/07/05 22:23:37;;;;;;;7.70;7.10;;;;;;;16.00;76.53;99688.37;444883;1277;186364;-59
2022/07/05 22:33:44;;;;;;;8.30;7.50;;;;;;;15.96;76.72;99685.21;445689;1277;141500;-59
2022/07/05 22:43:51;;;;;;;10.20;9.40;;;;;;;15.96;76.86;99676.87;445613;1277;142760;-58
2022/07/05 22:53:56;;;;;;;12.20;10.40;;;;;;;15.93;76.92;99673.58;444898;1277;142975;-59
2022/07/05 23:04:02;;;;;;;14.90;10.10;;;;;;;15.86;77.07;99677.48;445597;1277;144153;-59
2022/07/05 23:14:08;;;;;;;8.50;7.70;;;;;;;15.85;77.09;99671.27;444099;1279;142036;-59
2022/07/05 23:34:37;;;;;;;8.50;7.80;;;;;;;15.82;77.41;99665.66;445668;1277;146449;-59
2022/07/05 23:44:43;;;;;;;8.70;7.90;;;;;;;15.79;77.48;99673.64;444908;1277;142949;-59
2022/07/05 23:54:49;;;;;;;8.20;7.30;;;;;;;15.75;77.62;99664.86;445669;1277;142653;-59
